Time;durP1;ratioP1;P1;durP2;ratioP2;P2;SDS_P1;SDS_P2;PMS_P1;PMS_P2;Temp;Humidity;BMP_temperature;BMP_pressure;BME280_temperature;BME280_humidity;BME280_pressure;Samples;Min_cycle;Max_cycle;Signal;HPM_P1;HPM_P2
2022/03/03 00:05:02;;;;;;;72.57;38.92;;;;;;;1.47;100.00;102360.13;4890084;24;20049;-79
2022/03/03 00:07:32;;;;;;;75.90;41.45;;;;;;;1.45;100.00;102364.34;4803739;29;20089;-80
2022/03/03 00:10:02;;;;;;;76.28;40.97;;;;;;;1.41;100.00;102357.16;4802513;29;20042;-79
2022/03/03 00:12:31;;;;;;;76.25;41.22;;;;;;;1.41;100.00;102362.34;4810579;29;20042;-78
2022/03/03 00:15:00;;;;;;;73.70;40.05;;;;;;;1.38;100.00;102354.38;4779731;29;20553;-78
2022/03/03 00:17:29;;;;;;;73.30;40.17;;;;;;;1.36;100.00;102358.53;4817486;29;20050;-79
2022/03/03 00:19:58;;;;;;;71.57;38.45;;;;;;;1.36;100.00;102361.13;4826116;29;20050;-78
2022/03/03 00:22:26;;;;;;;78.35;40.80;;;;;;;1.34;100.00;102353.28;4824178;29;20289;-79
2022/03/03 00:24:55;;;;;;;72.70;40.10;;;;;;;1.35;100.00;102349.84;4812315;29;20054;-80
2022/03/03 00:27:23;;;;;;;83.00;43.40;;;;;;;1.40;100.00;102352.78;4799978;29;20046;-80
2022/03/03 00:29:52;;;;;;;74.00;42.25;;;;;;;1.46;100.00;102360.06;4827377;29;20046;-79
2022/03/03 00:32:21;;;;;;;69.93;41.83;;;;;;;1.48;100.00;102348.06;4795664;29;20160;-80
2022/03/03 00:34:50;;;;;;;70.90;40.63;;;;;;;1.50;100.00;102334.38;4828289;29;20050;-80
2022/03/03 00:37:18;;;;;;;78.97;42.75;;;;;;;1.53;100.00;102331.06;4806964;29;20073;-80
2022/03/03 00:39:47;;;;;;;72.07;41.63;;;;;;;1.52;100.00;102311.09;4804293;29;20034;-78
2022/03/03 00:42:16;;;;;;;70.55;37.28;;;;;;;1.52;100.00;102303.28;4772703;29;20058;-79
2022/03/03 00:44:44;;;;;;;71.70;38.60;;;;;;;1.52;100.00;102303.28;4807118;29;20046;-80
2022/03/03 00:47:13;;;;;;;74.30;41.53;;;;;;;1.50;100.00;102298.00;4825274;29;20052;-79
2022/03/03 00:49:42;;;;;;;72.38;38.80;;;;;;;1.46;100.00;102296.00;4795986;29;20058;-79
2022/03/03 00:52:10;;;;;;;67.20;39.00;;;;;;;1.40;100.00;102293.03;4840344;29;20049;-78
2022/03/03 00:54:39;;;;;;;66.57;37.13;;;;;;;1.37;100.00;102298.00;4810575;29;20058;-78
2022/03/03 00:57:07;;;;;;;68.63;40.55;;;;;;;1.32;100.00;102289.94;4793100;29;20057;-78
2022/03/03 00:59:40;;;;;;;71.20;41.47;;;;;;;1.29;100.00;102296.63;4794107;29;20506;-79
2022/03/03 01:02:09;;;;;;;87.50;54.33;;;;;;;1.27;100.00;102298.25;4812714;29;20054;-78
2022/03/03 01:04:38;;;;;;;113.30;71.45;;;;;;;1.26;100.00;102299.91;4789837;29;20065;-80
2022/03/03 01:07:07;;;;;;;116.90;65.82;;;;;;;1.28;100.00;102302.63;4788354;29;20053;-78
2022/03/03 01:09:35;;;;;;;112.13;68.65;;;;;;;1.25;100.00;102292.03;4790777;29;20460;-78
2022/03/03 01:12:04;;;;;;;118.85;73.05;;;;;;;1.22;100.00;102299.63;4801084;29;20046;-79
2022/03/03 01:14:32;;;;;;;109.68;69.25;;;;;;;1.18;100.00;102298.53;4768893;29;20042;-79
2022/03/03 01:17:01;;;;;;;116.20;70.20;;;;;;;1.15;100.00;102296.66;4800518;29;20046;-79
2022/03/03 01:19:30;;;;;;;105.90;66.80;;;;;;;1.13;100.00;102303.41;4814104;29;20180;-79
2022/03/03 01:21:58;;;;;;;101.75;62.85;;;;;;;1.08;100.00;102302.25;4806405;29;20050;-79
2022/03/03 01:24:31;;;;;;;100.43;59.05;;;;;;;1.06;100.00;102303.84;4815448;29;20161;-78
2022/03/03 01:27:00;;;;;;;88.25;50.67;;;;;;;1.03;100.00;102292.34;4814925;29;20065;-79
2022/03/03 01:29:28;;;;;;;87.32;53.63;;;;;;;1.01;100.00;102294.84;4800449;29;20551;-79
2022/03/03 01:31:57;;;;;;;92.70;55.17;;;;;;;0.98;100.00;102294.63;4823484;29;20054;-80
2022/03/03 01:34:26;;;;;;;91.15;56.15;;;;;;;0.94;100.00;102290.03;4797520;29;20050;-79
2022/03/03 01:36:57;;;;;;;103.93;62.65;;;;;;;0.91;100.00;102295.06;4818466;29;20042;-79
2022/03/03 01:39:26;;;;;;;105.28;67.28;;;;;;;0.87;100.00;102285.25;4792950;29;20074;-79
2022/03/03 01:41:55;;;;;;;91.57;57.17;;;;;;;0.82;100.00;102279.78;4785259;29;20046;-80
2022/03/03 01:44:24;;;;;;;101.38;62.72;;;;;;;0.76;100.00;102272.47;4800934;29;20259;-78
2022/03/03 01:46:56;;;;;;;90.78;51.47;;;;;;;0.75;100.00;102272.38;4793512;29;20531;-79
2022/03/03 01:49:25;;;;;;;90.90;56.70;;;;;;;0.76;100.00;102263.81;4808215;29;20050;-79
2022/03/03 01:51:56;;;;;;;87.70;54.58;;;;;;;0.74;100.00;102271.47;4814901;29;20058;-78
2022/03/03 01:54:25;;;;;;;106.57;67.78;;;;;;;0.73;100.00;102279.16;4802678;29;20042;-78
2022/03/03 01:56:54;;;;;;;109.40;68.10;;;;;;;0.75;100.00;102270.66;4813559;29;20050;-80
2022/03/03 01:59:22;;;;;;;104.25;64.20;;;;;;;0.76;100.00;102274.19;4817485;29;20283;-78
2022/03/03 02:01:51;;;;;;;94.45;59.08;;;;;;;0.75;100.00;102277.56;4803637;23;20681;-81
2022/03/03 02:04:20;;;;;;;96.25;57.92;;;;;;;0.72;100.00;102264.41;4808792;29;20069;-81
2022/03/03 02:06:48;;;;;;;89.03;55.10;;;;;;;0.70;100.00;102274.69;4804896;29;20058;-82
2022/03/03 02:09:20;;;;;;;90.13;54.38;;;;;;;0.66;100.00;102270.09;4788622;29;20159;-81
2022/03/03 02:11:49;;;;;;;88.95;53.03;;;;;;;0.63;100.00;102266.38;4791909;29;20049;-81
2022/03/03 02:14:18;;;;;;;78.95;47.78;;;;;;;0.62;100.00;102252.50;4792340;29;20171;-81
2022/03/03 02:16:47;;;;;;;77.20;45.38;;;;;;;0.60;100.00;102261.88;4796658;29;20042;-81
2022/03/03 02:19:17;;;;;;;75.95;44.92;;;;;;;0.60;100.00;102266.19;4835340;29;20058;-82
2022/03/03 02:21:53;;;;;;;76.75;44.05;;;;;;;0.57;100.00;102261.69;4789967;29;20054;-81
2022/03/03 02:24:22;;;;;;;68.97;43.50;;;;;;;0.54;100.00;102261.47;4792932;29;20054;-81
2022/03/03 02:26:51;;;;;;;78.20;41.53;;;;;;;0.51;100.00;102257.00;4795592;29;20057;-81
2022/03/03 02:29:20;;;;;;;78.10;44.00;;;;;;;0.52;100.00;102247.50;4797348;29;20065;-81
2022/03/03 02:31:48;;;;;;;76.82;43.10;;;;;;;0.54;100.00;102251.09;4782692;29;20046;-82
2022/03/03 02:34:17;;;;;;;76.40;43.00;;;;;;;0.64;100.00;102250.00;4785538;29;20575;-82
2022/03/03 02:36:45;;;;;;;77.78;43.65;;;;;;;0.67;100.00;102256.31;4796243;29;20065;-81
2022/03/03 02:39:13;;;;;;;74.68;42.00;;;;;;;0.68;100.00;102255.53;4783580;29;20399;-82
2022/03/03 02:41:42;;;;;;;69.18;42.35;;;;;;;0.69;100.00;102252.09;4790725;29;20057;-81
2022/03/03 02:44:10;;;;;;;80.15;43.65;;;;;;;0.74;100.00;102255.03;4807442;29;20050;-83
2022/03/03 02:46:39;;;;;;;78.53;43.15;;;;;;;0.72;100.00;102254.03;4787581;29;20049;-82
2022/03/03 02:49:09;;;;;;;69.15;39.78;;;;;;;0.72;100.00;102254.91;4781955;29;20042;-83
2022/03/03 02:51:37;;;;;;;73.68;41.75;;;;;;;0.71;100.00;102263.47;4784642;29;20054;-82
2022/03/03 02:54:06;;;;;;;73.57;40.63;;;;;;;0.74;100.00;102257.63;4813685;29;20050;-83
2022/03/03 02:57:53;;;;;;;68.57;40.15;;;;;;;0.77;100.00;102256.09;4791040;29;20241;-82
2022/03/03 02:59:23;;;;;;;71.93;40.95;;;;;;;0.84;100.00;102264.31;4811610;29;20046;-81
2022/03/03 03:01:51;;;;;;;68.78;41.08;;;;;;;0.88;100.00;102266.28;4800719;29;20065;-81
2022/03/03 03:04:19;;;;;;;71.95;42.40;;;;;;;0.92;100.00;102258.78;4778328;29;20050;-82
2022/03/03 03:06:48;;;;;;;65.30;38.25;;;;;;;0.96;100.00;102259.91;4792441;29;20501;-81
2022/03/03 03:09:17;;;;;;;62.33;36.75;;;;;;;0.98;100.00;102255.69;4770049;29;20246;-82
2022/03/03 03:11:45;;;;;;;59.95;37.05;;;;;;;0.96;100.00;102255.63;4787200;29;20051;-82
2022/03/03 03:14:14;;;;;;;63.10;37.55;;;;;;;0.94;100.00;102251.13;4783380;29;20058;-82
2022/03/03 03:16:42;;;;;;;72.35;39.35;;;;;;;0.94;100.00;102251.13;4765406;29;20504;-81
2022/03/03 03:19:10;;;;;;;64.40;38.10;;;;;;;0.92;100.00;102257.91;4780428;29;20042;-83
2022/03/03 03:21:39;;;;;;;63.40;37.10;;;;;;;0.89;100.00;102252.50;4777779;29;20046;-82
2022/03/03 03:24:08;;;;;;;64.50;38.53;;;;;;;0.88;100.00;102258.50;4771940;29;20046;-83
2022/03/03 03:26:36;;;;;;;68.38;39.22;;;;;;;0.85;100.00;102254.03;4768397;29;20416;-81
2022/03/03 03:29:05;;;;;;;67.13;38.88;;;;;;;0.82;100.00;102242.53;4771834;29;20049;-82
2022/03/03 03:31:33;;;;;;;65.22;38.10;;;;;;;0.80;100.00;102250.22;4794661;29;20051;-82
2022/03/03 03:34:02;;;;;;;54.67;36.03;;;;;;;0.77;100.00;102250.91;4763201;29;20050;-81
2022/03/03 03:36:30;;;;;;;61.13;36.22;;;;;;;0.76;100.00;102251.72;4800995;29;20054;-82
2022/03/03 03:38:59;;;;;;;64.28;37.42;;;;;;;0.74;100.00;102252.44;4773172;29;20045;-82
2022/03/03 03:41:27;;;;;;;55.25;34.55;;;;;;;0.73;100.00;102248.03;4799936;29;20508;-81
2022/03/03 03:43:56;;;;;;;57.03;34.10;;;;;;;0.73;100.00;102238.53;4771965;29;20042;-82
2022/03/03 03:46:25;;;;;;;54.42;33.95;;;;;;;0.77;100.00;102250.91;4779610;29;20159;-81
2022/03/03 03:48:54;;;;;;;60.65;34.97;;;;;;;0.77;100.00;102250.91;4801793;29;20034;-82
2022/03/03 03:51:23;;;;;;;53.78;33.65;;;;;;;0.75;100.00;102247.31;4756394;29;20460;-82
2022/03/03 03:53:51;;;;;;;52.80;32.42;;;;;;;0.73;100.00;102245.44;4762404;29;20066;-82
2022/03/03 03:56:19;;;;;;;55.20;34.00;;;;;;;0.73;100.00;102237.66;4764085;29;20062;-81
2022/03/03 03:58:49;;;;;;;52.03;32.50;;;;;;;0.71;100.00;102237.53;4788168;29;20512;-81
2022/03/03 04:01:17;;;;;;;56.47;33.70;;;;;;;0.71;100.00;102234.94;4798783;29;20644;-81
2022/03/03 04:03:47;;;;;;;55.25;34.47;;;;;;;0.69;100.00;102231.34;4781014;29;20054;-81
2022/03/03 04:06:16;;;;;;;58.50;35.20;;;;;;;0.69;100.00;102230.47;4755131;29;20062;-81
2022/03/03 04:08:44;;;;;;;52.42;32.40;;;;;;;0.69;100.00;102230.47;4779066;29;20043;-81
2022/03/03 04:11:12;;;;;;;59.72;35.50;;;;;;;0.69;100.00;102235.66;4781101;29;20416;-82
2022/03/03 04:13:41;;;;;;;58.53;35.58;;;;;;;0.70;100.00;102242.63;4805899;29;20051;-81
2022/03/03 04:16:09;;;;;;;61.03;36.63;;;;;;;0.68;100.00;102226.97;4774332;29;20050;-83
2022/03/03 04:18:37;;;;;;;58.50;35.47;;;;;;;0.67;100.00;102232.06;4760743;29;20050;-80
2022/03/03 04:21:06;;;;;;;62.65;36.90;;;;;;;0.66;100.00;102225.97;4778004;29;20047;-80
2022/03/03 04:23:35;;;;;;;58.63;34.70;;;;;;;0.67;100.00;102232.94;4789547;29;20046;-80
2022/03/03 04:26:03;;;;;;;54.22;33.08;;;;;;;0.67;100.00;102232.94;4772964;29;20077;-83
2022/03/03 04:28:32;;;;;;;59.05;34.50;;;;;;;0.67;100.00;102229.47;4766708;29;20280;-80
2022/03/03 04:31:00;;;;;;;52.67;32.72;;;;;;;0.64;100.00;102221.47;4804800;29;20382;-82
2022/03/03 04:33:29;;;;;;;56.83;34.28;;;;;;;0.64;100.00;102221.47;4780216;29;20062;-80
2022/03/03 04:35:57;;;;;;;53.45;33.00;;;;;;;0.64;100.00;102218.88;4787008;29;20382;-81
2022/03/03 04:38:26;;;;;;;65.13;37.08;;;;;;;0.63;100.00;102210.19;4769458;29;20263;-80
2022/03/03 04:40:54;;;;;;;55.45;33.67;;;;;;;0.62;100.00;102212.69;4782530;29;20061;-80
2022/03/03 04:43:22;;;;;;;51.05;32.33;;;;;;;0.62;100.00;102210.09;4805023;29;20069;-81
2022/03/03 04:45:51;;;;;;;52.33;33.55;;;;;;;0.65;100.00;102221.56;4805652;29;20046;-81
2022/03/03 04:48:19;;;;;;;55.35;35.03;;;;;;;0.64;100.00;102209.38;4800847;29;20255;-81
2022/03/03 04:50:48;;;;;;;51.63;32.38;;;;;;;0.64;100.00;102218.88;4767501;29;20039;-82
2022/03/03 04:53:16;;;;;;;53.38;34.90;;;;;;;0.62;100.00;102211.00;4755224;29;20051;-80
2022/03/03 04:55:44;;;;;;;59.92;34.00;;;;;;;0.62;100.00;102205.81;4795270;29;20079;-80
2022/03/03 04:58:13;;;;;;;56.47;35.40;;;;;;;0.62;100.00;102198.00;4759770;29;20061;-83
2022/03/03 05:00:41;;;;;;;62.05;36.08;;;;;;;0.60;100.00;102194.44;4795052;29;20055;-82
2022/03/03 05:03:10;;;;;;;57.95;33.88;;;;;;;0.60;100.00;102204.81;4772670;29;20054;-83
2022/03/03 05:05:38;;;;;;;55.42;33.92;;;;;;;0.58;100.00;102193.44;4785165;29;20046;-82
2022/03/03 05:08:07;;;;;;;59.13;36.05;;;;;;;0.57;100.00;102199.44;4788728;29;20416;-82
2022/03/03 05:10:36;;;;;;;61.30;36.03;;;;;;;0.57;100.00;102196.84;4785872;29;20524;-82
2022/03/03 05:13:04;;;;;;;60.65;37.38;;;;;;;0.56;100.00;102198.50;4782072;29;20066;-82
2022/03/03 05:15:33;;;;;;;65.05;37.80;;;;;;;0.56;100.00;102203.69;4783516;29;20073;-82
2022/03/03 05:18:01;;;;;;;59.05;35.42;;;;;;;0.56;100.00;102198.50;4819430;29;20079;-82
2022/03/03 05:20:30;;;;;;;65.43;37.78;;;;;;;0.56;100.00;102198.50;4780066;29;23380;-82
2022/03/03 05:22:58;;;;;;;73.13;39.70;;;;;;;0.54;100.00;102200.13;4804599;29;20054;-82
2022/03/03 05:25:26;;;;;;;62.38;38.38;;;;;;;0.53;100.00;102197.41;4752507;29;20644;-82
2022/03/03 05:27:55;;;;;;;64.75;38.60;;;;;;;0.53;100.00;102198.34;4753680;29;20055;-82
2022/03/03 05:30:23;;;;;;;65.13;38.53;;;;;;;0.57;100.00;102194.25;4764727;29;20047;-82
2022/03/03 05:32:52;;;;;;;64.45;35.60;;;;;;;0.58;100.00;102188.25;4774040;29;20047;-81
2022/03/03 05:35:21;;;;;;;63.75;38.50;;;;;;;0.60;100.00;102194.44;4785134;29;20274;-82
2022/03/03 05:37:50;;;;;;;64.72;37.38;;;;;;;0.58;100.00;102183.94;4777371;29;20060;-83
2022/03/03 05:40:18;;;;;;;67.38;37.28;;;;;;;0.57;100.00;102192.53;4800006;29;20357;-82
2022/03/03 05:42:46;;;;;;;68.20;37.45;;;;;;;0.56;100.00;102193.31;4776526;29;20042;-81
2022/03/03 05:45:15;;;;;;;67.35;40.28;;;;;;;0.54;100.00;102199.22;4780805;29;20464;-81
2022/03/03 05:47:46;;;;;;;65.55;37.85;;;;;;;0.54;100.00;102199.22;4778793;29;20043;-83
2022/03/03 05:50:15;;;;;;;65.78;37.83;;;;;;;0.53;100.00;102195.75;4816848;29;20077;-84
2022/03/03 05:52:43;;;;;;;64.53;39.05;;;;;;;0.53;100.00;102202.59;4764754;29;20047;-84
2022/03/03 05:55:12;;;;;;;69.63;41.65;;;;;;;0.51;100.00;102209.38;4773725;29;20054;-82
2022/03/03 05:57:48;;;;;;;67.07;41.33;;;;;;;0.50;100.00;102202.41;4740477;29;20058;-82
2022/03/03 06:00:17;;;;;;;68.57;41.28;;;;;;;0.52;100.00;102203.41;4796851;29;20061;-82
2022/03/03 06:03:07;;;;;;;77.13;42.38;;;;;;;0.53;100.00;102202.59;4770012;29;20527;-81
2022/03/03 06:05:37;;;;;;;74.53;43.17;;;;;;;0.51;100.00;102202.53;4789570;29;20042;-82
2022/03/03 06:08:06;;;;;;;70.22;41.03;;;;;;;0.51;100.00;102197.34;4770458;29;20039;-84
2022/03/03 06:10:39;;;;;;;69.05;41.30;;;;;;;0.50;100.00;102202.41;4767490;29;20043;-83
2022/03/03 06:13:19;;;;;;;69.25;39.97;;;;;;;0.51;100.00;102209.38;4797714;29;20081;-83
2022/03/03 06:15:48;;;;;;;72.28;42.10;;;;;;;0.50;100.00;102215.38;4801580;29;20065;-82
2022/03/03 06:18:25;;;;;;;79.93;44.92;;;;;;;0.52;100.00;102216.38;4794376;29;20504;-83
2022/03/03 06:20:54;;;;;;;76.60;41.50;;;;;;;0.52;100.00;102218.97;4796171;29;20038;-84
2022/03/03 06:23:23;;;;;;;74.47;43.33;;;;;;;0.52;100.00;102212.09;4761680;29;20057;-82
2022/03/03 06:25:56;;;;;;;72.20;42.30;;;;;;;0.52;100.00;102217.28;4769668;29;20045;-82
2022/03/03 06:28:24;;;;;;;72.75;42.20;;;;;;;0.53;100.00;102213.91;4766911;29;20051;-82
2022/03/03 06:30:53;;;;;;;69.55;41.13;;;;;;;0.53;100.00;102220.75;4779296;29;20057;-83
2022/03/03 06:33:21;;;;;;;69.43;40.47;;;;;;;0.54;100.00;102230.34;4781082;29;20047;-82
2022/03/03 06:35:51;;;;;;;81.18;41.75;;;;;;;0.58;100.00;102224.56;4799997;29;20066;-84
2022/03/03 06:38:19;;;;;;;69.28;39.67;;;;;;;0.58;100.00;102217.66;4756484;29;20054;-83
2022/03/03 06:40:48;;;;;;;74.70;40.85;;;;;;;0.59;100.00;102226.38;4773097;29;20401;-82
2022/03/03 06:43:16;;;;;;;91.72;43.78;;;;;;;0.62;100.00;102218.78;4792214;29;20050;-83
2022/03/03 06:45:45;;;;;;;71.75;40.53;;;;;;;0.65;100.00;102229.34;4747116;29;20378;-83
2022/03/03 06:48:13;;;;;;;71.22;40.47;;;;;;;0.66;100.00;102231.19;4763307;29;20055;-82
2022/03/03 06:50:42;;;;;;;75.38;42.70;;;;;;;0.68;100.00;102226.97;4771560;29;20392;-84
2022/03/03 06:53:11;;;;;;;76.38;40.05;;;;;;;0.72;100.00;102236.75;4805915;29;23845;-82
2022/03/03 06:55:44;;;;;;;72.28;41.15;;;;;;;0.73;100.00;102228.16;4793711;29;20065;-82
2022/03/03 06:58:14;;;;;;;76.63;41.58;;;;;;;0.76;100.00;102235.25;4784480;29;20278;-81
2022/03/03 07:00:48;;;;;;;74.93;41.05;;;;;;;0.80;100.00;102236.38;4764498;29;20038;-81
2022/03/03 07:03:20;;;;;;;71.10;41.45;;;;;;;0.85;100.00;102229.75;4803107;29;20050;-82
2022/03/03 07:05:51;;;;;;;80.88;41.95;;;;;;;0.90;100.00;102233.56;4817245;29;20053;-86
2022/03/03 07:08:20;;;;;;;70.55;40.40;;;;;;;0.99;100.00;102234.16;4800302;29;20061;-87
2022/03/03 07:10:52;;;;;;;79.97;39.97;;;;;;;1.08;100.00;102239.94;4756287;29;20397;-87
2022/03/03 07:13:21;;;;;;;98.95;39.92;;;;;;;1.12;100.00;102238.44;4782712;29;20519;-86
2022/03/03 07:16:04;;;;;;;75.38;37.80;;;;;;;1.13;100.00;102230.72;4751493;29;20065;-86
2022/03/03 07:18:40;;;;;;;66.90;38.40;;;;;;;1.15;100.00;102234.34;4803309;29;20050;-86
2022/03/03 07:21:24;;;;;;;68.13;39.95;;;;;;;1.20;100.00;102236.31;4785993;29;20069;-86
2022/03/03 07:24:19;;;;;;;70.88;39.30;;;;;;;1.24;100.00;102233.13;4792142;29;20047;-88
2022/03/03 07:26:51;;;;;;;63.05;37.75;;;;;;;1.28;100.00;102232.50;4778743;29;20045;-87
2022/03/03 07:29:24;;;;;;;67.57;39.90;;;;;;;1.31;100.00;102236.19;4784699;29;20047;-90
2022/03/03 07:31:55;;;;;;;68.30;39.17;;;;;;;1.34;100.00;102238.06;4765141;29;20050;-87
2022/03/03 07:34:33;;;;;;;62.53;38.42;;;;;;;1.39;100.00;102239.25;4760807;29;20080;-85
2022/03/03 07:37:07;;;;;;;68.93;38.05;;;;;;;1.42;100.00;102239.47;4779091;29;20085;-87
2022/03/03 07:39:42;;;;;;;68.75;38.58;;;;;;;1.46;100.00;102240.56;4783466;29;20043;-86
2022/03/03 07:42:17;;;;;;;69.57;38.33;;;;;;;1.51;100.00;102240.06;4775524;29;20066;-85
2022/03/03 07:44:47;;;;;;;64.78;39.10;;;;;;;1.57;100.00;102244.72;4774783;29;20054;-85
2022/03/03 07:47:16;;;;;;;67.78;38.67;;;;;;;1.63;100.00;102239.00;4759026;29;20050;-86
2022/03/03 07:49:45;;;;;;;69.70;43.35;;;;;;;1.68;100.00;102237.56;4787744;29;20096;-87
2022/03/03 07:52:14;;;;;;;76.05;41.53;;;;;;;1.74;100.00;102228.47;4787396;29;20050;-87
2022/03/03 07:54:42;;;;;;;69.20;40.08;;;;;;;1.80;100.00;102233.16;4743881;29;20077;-88
2022/03/03 07:57:17;;;;;;;63.55;38.25;;;;;;;1.87;100.00;102232.72;4772598;29;20045;-87
2022/03/03 07:59:48;;;;;;;59.72;36.97;;;;;;;1.95;100.00;102230.59;4795408;29;20055;-86
2022/03/03 08:02:22;;;;;;;60.47;36.17;;;;;;;2.03;100.00;102224.13;4772651;29;20054;-86
2022/03/03 08:04:52;;;;;;;63.78;38.08;;;;;;;2.11;100.00;102230.66;4785685;29;20058;-86
2022/03/03 08:07:20;;;;;;;62.47;37.70;;;;;;;2.22;100.00;102228.72;4776809;29;20054;-86
2022/03/03 08:09:57;;;;;;;54.08;34.75;;;;;;;2.37;100.00;102230.44;4769452;29;20054;-86
2022/03/03 08:12:31;;;;;;;51.65;34.05;;;;;;;2.54;100.00;102241.00;4795116;29;20042;-87
2022/03/03 08:15:00;;;;;;;52.95;34.88;;;;;;;2.76;100.00;102238.75;4796984;29;20269;-87
2022/03/03 08:17:33;;;;;;;53.47;34.33;;;;;;;3.09;100.00;102229.34;4754353;29;20428;-87
2022/03/03 08:20:05;;;;;;;53.00;33.55;;;;;;;3.51;100.00;102236.00;4806786;29;20645;-86
2022/03/03 08:22:38;;;;;;;54.75;33.95;;;;;;;3.99;100.00;102233.34;4800724;29;20051;-87
2022/03/03 08:25:09;;;;;;;52.17;32.78;;;;;;;4.42;100.00;102235.53;4783652;29;20073;-87
2022/03/03 08:27:40;;;;;;;47.92;32.45;;;;;;;4.72;100.00;102247.44;4762584;29;20058;-88
2022/03/03 08:30:11;;;;;;;48.25;31.50;;;;;;;5.02;100.00;102246.31;4761047;29;20062;-88
2022/03/03 08:32:48;;;;;;;47.63;30.55;;;;;;;5.34;100.00;102241.72;4772658;29;20038;-87
2022/03/03 08:35:22;;;;;;;46.05;32.40;;;;;;;5.64;100.00;102246.59;4776150;29;20066;-88
2022/03/03 08:42:56;;;;;;;42.33;30.05;;;;;;;6.18;100.00;102259.47;4770064;29;20656;-87
2022/03/03 08:46:37;;;;;;;59.33;40.58;;;;;;;6.43;100.00;102258.81;4790977;29;21289;-87
2022/03/03 08:49:10;;;;;;;47.60;32.85;;;;;;;6.50;100.00;102259.97;4758278;29;20054;-88
2022/03/03 08:51:46;;;;;;;52.08;35.20;;;;;;;6.64;100.00;102258.84;4779443;29;20051;-89
2022/03/03 08:54:15;;;;;;;46.40;32.58;;;;;;;6.79;100.00;102255.97;4773755;29;20415;-87
2022/03/03 08:56:43;;;;;;;44.85;32.08;;;;;;;6.93;100.00;102249.53;4760952;29;20053;-87
2022/03/03 08:59:14;;;;;;;45.50;33.08;;;;;;;7.06;100.00;102242.19;4794988;29;20054;-87
2022/03/03 09:01:42;;;;;;;43.22;31.25;;;;;;;7.08;100.00;102240.50;4793009;29;20065;-89
2022/03/03 09:04:11;;;;;;;48.95;33.50;;;;;;;7.10;100.00;102244.09;4762146;29;20055;-87
2022/03/03 09:06:40;;;;;;;44.17;32.85;;;;;;;7.11;100.00;102225.81;4784977;29;20278;-88
2022/03/03 09:09:08;;;;;;;43.50;32.45;;;;;;;7.20;100.00;102226.16;4758936;29;20532;-87
2022/03/03 09:11:38;;;;;;;47.58;34.65;;;;;;;7.32;100.00;102220.50;4765389;29;20265;-87
2022/03/03 09:14:10;;;;;;;43.75;31.58;;;;;;;7.37;100.00;102221.56;4759759;29;20051;-88
2022/03/03 09:16:39;;;;;;;39.70;31.33;;;;;;;7.35;100.00;102222.34;4772588;29;20058;-87
2022/03/03 09:19:09;;;;;;;44.65;33.63;;;;;;;7.32;100.00;102215.25;4808086;29;20054;-87
2022/03/03 09:21:38;;;;;;;42.53;30.37;;;;;;;7.30;100.00;102216.03;4809802;29;20250;-87
2022/03/03 09:24:06;;;;;;;44.40;31.05;;;;;;;7.23;99.05;102215.78;4810797;29;20048;-88
2022/03/03 09:26:36;;;;;;;42.10;28.63;;;;;;;7.23;98.58;102215.78;4784679;29;20069;-88
2022/03/03 09:29:06;;;;;;;38.95;29.67;;;;;;;7.25;97.58;102222.81;4807815;29;20057;-88
2022/03/03 09:31:35;;;;;;;38.85;26.55;;;;;;;7.21;96.33;102220.06;4814519;29;20049;-88
2022/03/03 09:34:03;;;;;;;38.75;26.60;;;;;;;7.11;94.25;102209.19;4819011;29;20053;-87
2022/03/03 09:36:32;;;;;;;35.95;26.75;;;;;;;6.99;92.23;102209.59;4778824;29;20551;-88
2022/03/03 09:39:00;;;;;;;31.63;24.25;;;;;;;6.92;92.14;102213.69;4802816;29;20057;-88
2022/03/03 09:41:29;;;;;;;36.58;24.73;;;;;;;6.81;90.93;102202.78;4806298;29;20041;-87
2022/03/03 09:43:58;;;;;;;36.00;25.45;;;;;;;6.75;90.74;102196.41;4809641;29;20064;-87
2022/03/03 09:46:27;;;;;;;33.88;23.77;;;;;;;6.66;89.08;102199.53;4795676;29;20348;-87
2022/03/03 09:48:56;;;;;;;34.42;22.70;;;;;;;6.60;89.04;102215.00;4836169;29;20045;-87
2022/03/03 09:51:25;;;;;;;31.50;22.58;;;;;;;6.57;89.10;102209.63;4798332;29;21545;-88
2022/03/03 09:53:55;;;;;;;33.85;23.98;;;;;;;6.56;88.33;102227.09;4786457;29;20057;-87
2022/03/03 09:56:24;;;;;;;;;;;;;;;6.51;85.36;102218.13;4777283;29;20454;-88
2022/03/03 09:58:53;;;;;;;34.28;22.55;;;;;;;6.48;87.06;102209.25;4842668;29;20373;-85
2022/03/03 10:01:27;;;;;;;32.97;22.00;;;;;;;6.47;87.33;102212.72;4835631;29;20037;-87
2022/03/03 10:04:20;;;;;;;31.20;22.38;;;;;;;6.48;85.19;102214.50;4823521;29;20050;-87
2022/03/03 10:06:50;;;;;;;30.83;21.85;;;;;;;6.48;87.24;102212.75;4826503;29;20054;-88
2022/03/03 10:09:19;;;;;;;31.45;23.55;;;;;;;6.56;87.70;102208.75;4789691;29;20419;-88
2022/03/03 10:11:47;;;;;;;29.35;20.77;;;;;;;6.57;85.66;102207.03;4827296;29;20046;-88
2022/03/03 10:14:30;;;;;;;30.45;22.02;;;;;;;6.61;86.07;102220.28;4842824;29;20037;-87
2022/03/03 10:17:00;;;;;;;39.53;25.80;;;;;;;6.64;85.97;102224.78;4840186;29;20053;-88
2022/03/03 10:19:52;;;;;;;44.13;30.90;;;;;;;6.61;87.66;102236.00;4841061;29;20558;-87
2022/03/03 10:22:37;;;;;;;45.80;30.58;;;;;;;6.56;89.41;102236.66;4793902;29;20045;-87
2022/03/03 10:25:09;;;;;;;50.47;31.48;;;;;;;6.50;91.23;102229.44;4852531;29;20045;-87
2022/03/03 10:27:37;;;;;;;39.67;29.23;;;;;;;6.40;90.69;102243.84;4825788;29;20415;-87
2022/03/03 10:30:09;;;;;;;40.90;28.85;;;;;;;6.30;90.90;102231.22;4825826;29;20052;-87
2022/03/03 10:32:39;;;;;;;40.00;28.55;;;;;;;6.23;91.91;102250.09;4810208;29;20284;-87
2022/03/03 10:35:17;;;;;;;44.30;28.95;;;;;;;6.22;91.52;102241.38;4805834;29;20033;-87
2022/03/03 10:37:47;;;;;;;40.47;25.92;;;;;;;6.22;90.28;102248.34;4812727;29;20057;-86
2022/03/03 10:40:17;;;;;;;41.28;29.30;;;;;;;6.20;90.18;102250.88;4793234;29;20064;-87
2022/03/03 10:43:24;;;;;;;43.22;29.05;;;;;;;6.22;91.26;102259.69;5144289;27;20393;-87
2022/03/03 10:45:54;;;;;;;45.78;29.65;;;;;;;6.22;91.57;102248.34;5107874;28;20499;-88
2022/03/03 10:48:24;;;;;;;41.70;28.27;;;;;;;6.26;91.82;102250.25;5125990;27;20047;-88
2022/03/03 10:50:58;;;;;;;;;;;;;;;6.28;91.07;102258.16;5100970;28;20492;-86
2022/03/03 10:53:33;;;;;;;41.25;27.13;;;;;;;6.31;91.31;102260.91;5107390;27;19920;-88
2022/03/03 10:56:17;;;;;;;37.75;26.95;;;;;;;6.30;90.00;102256.50;5087541;27;20046;-88
2022/03/03 10:58:57;;;;;;;39.65;27.25;;;;;;;6.34;90.24;102263.66;5124928;27;20051;-88
2022/03/03 11:01:30;;;;;;;41.63;27.75;;;;;;;6.36;89.04;102262.00;5123662;27;20527;-87
2022/03/03 11:04:00;;;;;;;;;;;;;;;6.39;87.27;102256.88;5108642;28;20051;-87
2022/03/03 11:06:30;;;;;;;44.13;28.38;;;;;;;6.44;88.36;102247.50;5082387;27;20304;-87
2022/03/03 11:09:01;;;;;;;41.50;27.92;;;;;;;6.49;89.54;102253.84;5129751;27;20051;-88
2022/03/03 11:11:30;;;;;;;39.05;26.80;;;;;;;6.56;89.03;102248.03;5068266;27;20546;-88
2022/03/03 11:14:04;;;;;;;37.28;26.70;;;;;;;6.64;89.13;102249.25;5091873;27;20043;-88
2022/03/03 11:16:33;;;;;;;41.30;28.27;;;;;;;6.64;86.88;102251.88;5102787;28;20239;-88
2022/03/03 11:19:02;;;;;;;36.05;26.90;;;;;;;6.68;87.89;102254.63;5092563;28;20062;-86
2022/03/03 11:21:31;;;;;;;39.22;27.23;;;;;;;6.73;88.06;102253.06;5080878;28;20032;-87
2022/03/03 11:24:00;;;;;;;39.75;28.08;;;;;;;6.77;87.98;102252.38;5077947;28;20042;-87
2022/03/03 11:26:34;;;;;;;39.72;28.77;;;;;;;6.74;86.90;102250.50;5068365;27;22193;-88
2022/03/03 11:29:12;;;;;;;37.95;28.90;;;;;;;6.80;88.30;102249.88;5111272;28;20051;-87
2022/03/03 11:31:58;;;;;;;33.05;22.05;;;;;;;6.87;88.14;102232.69;5096920;27;20048;-86
2022/03/03 11:34:36;;;;;;;38.13;26.90;;;;;;;6.95;86.97;102247.88;5090225;28;20325;-88
2022/03/03 11:37:17;;;;;;;36.95;26.15;;;;;;;6.97;87.14;102232.22;5105441;27;20047;-88